createdAt,value
2019-01-12T00:01:28.891Z,5.73
2019-01-12T00:03:58.757Z,5.50
2019-01-12T00:06:27.158Z,7.60
2019-01-12T00:08:55.645Z,6.23
2019-01-12T00:11:24.056Z,6.93
2019-01-12T00:13:54.228Z,6.43
2019-01-12T00:16:23.809Z,4.67
2019-01-12T00:18:56.246Z,5.90
2019-01-12T00:21:28.284Z,5.63
2019-01-12T00:23:57.108Z,6.77
2019-01-12T00:26:25.749Z,6.77
2019-01-12T00:28:54.158Z,5.27
2019-01-12T00:31:22.667Z,9.67
2019-01-12T00:33:50.989Z,7.17
2019-01-12T00:36:19.482Z,4.13
2019-01-12T00:38:48.117Z,3.90
2019-01-12T00:41:16.594Z,6.27
2019-01-12T00:43:44.929Z,5.10
2019-01-12T00:46:13.452Z,4.90
2019-01-12T00:48:41.770Z,5.63
2019-01-12T00:51:10.375Z,4.93
2019-01-12T00:53:38.705Z,4.13
2019-01-12T00:56:07.317Z,4.20
2019-01-12T00:58:35.751Z,3.37
2019-01-12T01:01:04.446Z,4.83
2019-01-12T01:03:32.820Z,3.73
2019-01-12T01:06:01.389Z,5.33
2019-01-12T01:08:33.403Z,4.07
2019-01-12T01:11:01.974Z,4.93
2019-01-12T01:13:31.306Z,3.03
2019-01-12T01:15:59.794Z,5.70
2019-01-12T01:18:28.220Z,6.27
2019-01-12T01:20:56.693Z,4.33
2019-01-12T01:23:26.293Z,3.57
2019-01-12T01:25:54.777Z,4.43
2019-01-12T01:28:23.089Z,4.63
2019-01-12T01:30:51.731Z,2.80
2019-01-12T01:33:27.663Z,4.80
2019-01-12T01:35:50.822Z,5.33
2019-01-12T01:38:19.301Z,3.70
2019-01-12T01:40:47.793Z,5.73
2019-01-12T01:43:16.164Z,3.73
2019-01-12T01:45:44.787Z,3.23
2019-01-12T01:48:13.188Z,3.47
2019-01-12T01:50:41.849Z,3.27
2019-01-12T01:53:10.473Z,3.87
2019-01-12T01:55:39.004Z,3.20
2019-01-12T01:58:07.963Z,4.77
2019-01-12T02:00:36.548Z,4.53
2019-01-12T02:03:04.989Z,3.97
2019-01-12T02:05:33.378Z,3.53
2019-01-12T02:08:01.880Z,4.20
2019-01-12T02:10:34.045Z,3.73
2019-01-12T02:13:02.601Z,10.03
2019-01-12T02:15:31.010Z,5.87
2019-01-12T02:17:59.901Z,4.93
2019-01-12T02:20:28.304Z,3.40
2019-01-12T02:22:56.813Z,5.17
2019-01-12T02:25:25.369Z,5.70
2019-01-12T02:27:53.916Z,4.13
2019-01-12T02:30:23.940Z,3.20
2019-01-12T02:32:53.056Z,2.80
2019-01-12T02:35:21.647Z,4.73
2019-01-12T02:37:50.107Z,3.23
2019-01-12T02:40:18.655Z,2.93
2019-01-12T02:42:47.180Z,3.72
2019-01-12T02:45:15.886Z,4.73
2019-01-12T02:47:44.265Z,3.70
2019-01-12T02:50:13.173Z,7.50
2019-01-12T02:52:41.689Z,3.10
2019-01-12T02:55:11.033Z,4.33
2019-01-12T02:57:39.454Z,4.73
2019-01-12T03:00:18.597Z,4.17
2019-01-12T03:02:48.804Z,3.70
2019-01-12T03:05:17.629Z,4.33
2019-01-12T03:07:46.264Z,3.20
2019-01-12T03:10:16.862Z,4.70
2019-01-12T03:12:45.697Z,2.80
2019-01-12T03:15:17.699Z,3.73
2019-01-12T03:17:46.120Z,2.47
2019-01-12T03:20:16.229Z,7.07
2019-01-12T03:22:44.758Z,4.20
2019-01-12T03:25:18.710Z,5.47
2019-01-12T03:27:43.440Z,3.33
2019-01-12T03:30:17.238Z,4.17
2019-01-12T03:32:45.769Z,3.77
2019-01-12T03:35:15.844Z,3.53
2019-01-12T03:37:44.712Z,4.90
2019-01-12T03:40:18.572Z,5.40
2019-01-12T03:42:47.236Z,3.73
2019-01-12T03:45:16.769Z,2.67
2019-01-12T03:47:45.511Z,2.43
2019-01-12T03:50:14.774Z,3.33
2019-01-12T03:52:43.178Z,2.90
2019-01-12T03:55:11.736Z,2.53
2019-01-12T03:57:40.057Z,2.90
2019-01-12T04:00:15.528Z,4.50
2019-01-12T04:02:44.343Z,5.10
2019-01-12T04:05:12.852Z,2.97
2019-01-12T04:07:41.409Z,2.60
2019-01-12T04:10:10.469Z,3.90
2019-01-12T04:12:38.898Z,3.63
2019-01-12T04:15:08.334Z,3.73
2019-01-12T04:17:36.721Z,4.03
2019-01-12T04:20:06.725Z,3.00
2019-01-12T04:22:35.105Z,2.87
2019-01-12T04:25:04.486Z,4.27
2019-01-12T04:27:32.988Z,3.93
2019-01-12T04:30:01.311Z,5.53
2019-01-12T04:32:29.846Z,5.03
2019-01-12T04:34:58.246Z,5.67
2019-01-12T04:37:26.613Z,6.23
2019-01-12T04:39:55.034Z,4.70
2019-01-12T04:42:23.423Z,3.57
2019-01-12T04:44:51.835Z,4.63
2019-01-12T04:47:20.218Z,4.80
2019-01-12T04:49:48.653Z,3.60
2019-01-12T04:52:17.025Z,4.17
2019-01-12T04:54:45.429Z,5.27
2019-01-12T04:57:15.049Z,5.17
2019-01-12T04:59:43.525Z,2.77
2019-01-12T05:02:11.894Z,2.63
2019-01-12T05:04:40.408Z,6.60
2019-01-12T05:07:09.022Z,2.97
2019-01-12T05:09:37.334Z,3.57
2019-01-12T05:12:05.906Z,2.53
2019-01-12T05:14:34.221Z,3.87
2019-01-12T05:17:02.784Z,4.43
2019-01-12T05:19:31.099Z,4.30
2019-01-12T05:21:59.577Z,6.23
2019-01-12T05:24:27.881Z,6.43
2019-01-12T05:26:57.483Z,3.23
2019-01-12T05:29:25.813Z,5.77
2019-01-12T05:31:54.370Z,6.00
2019-01-12T05:34:22.845Z,5.03
2019-01-12T05:36:51.457Z,5.43
2019-01-12T05:39:19.959Z,5.97
2019-01-12T05:41:48.409Z,6.00
2019-01-12T05:44:17.049Z,6.60
2019-01-12T05:46:47.477Z,4.03
2019-01-12T05:49:15.889Z,8.97
2019-01-12T05:51:44.394Z,9.43
2019-01-12T05:54:12.881Z,6.50
2019-01-12T05:56:41.216Z,5.80
2019-01-12T05:59:09.641Z,4.60
2019-01-12T06:01:38.045Z,5.70
2019-01-12T06:04:06.825Z,5.07
2019-01-12T06:06:35.420Z,6.53
2019-01-12T06:09:06.589Z,5.90
2019-01-12T06:11:35.024Z,6.63
2019-01-12T06:14:04.071Z,9.63
2019-01-12T06:16:32.764Z,11.50
2019-01-12T06:19:00.889Z,11.65
2019-01-12T06:21:29.153Z,9.53
2019-01-12T06:23:57.382Z,5.83
2019-01-12T06:26:25.686Z,7.50
2019-01-12T06:28:54.004Z,13.70
2019-01-12T06:31:22.284Z,9.87
2019-01-12T06:33:50.425Z,9.50
2019-01-12T06:36:18.713Z,14.03
2019-01-12T06:38:46.828Z,13.27
2019-01-12T06:41:15.074Z,13.60
2019-01-12T06:43:43.377Z,18.43
2019-01-12T06:46:11.715Z,22.33
2019-01-12T06:48:40.056Z,26.57
2019-01-12T06:51:08.420Z,20.97
2019-01-12T06:53:36.599Z,21.87
2019-01-12T06:56:10.820Z,21.77
2019-01-12T06:58:35.098Z,22.10
2019-01-12T07:01:03.512Z,31.90
2019-01-12T07:03:31.743Z,25.70
2019-01-12T07:06:00.065Z,11.83
2019-01-12T07:08:28.212Z,17.13
2019-01-12T07:10:56.485Z,18.90
2019-01-12T07:13:24.605Z,20.20
2019-01-12T07:15:52.868Z,18.33
2019-01-12T07:18:21.080Z,18.13
2019-01-12T07:20:49.897Z,11.60
2019-01-12T07:23:18.243Z,17.40
2019-01-12T07:25:46.588Z,16.80
2019-01-12T07:28:14.896Z,9.83
2019-01-12T07:30:43.177Z,9.93
2019-01-12T07:33:11.295Z,10.23
2019-01-12T07:35:39.998Z,10.63
2019-01-12T07:38:08.229Z,9.93
2019-01-12T07:40:36.352Z,10.07
2019-01-12T07:43:04.462Z,21.60
2019-01-12T07:45:32.680Z,13.70
2019-01-12T07:48:00.902Z,11.20
2019-01-12T07:50:29.597Z,9.73
2019-01-12T07:52:57.856Z,10.63
2019-01-12T07:55:25.980Z,10.23
2019-01-12T07:57:55.171Z,9.73
2019-01-12T08:00:23.452Z,15.50
2019-01-12T08:02:51.963Z,9.93
2019-01-12T08:05:20.948Z,8.60
2019-01-12T08:07:49.300Z,8.20
2019-01-12T08:10:18.852Z,6.23
2019-01-12T08:12:47.176Z,6.73
2019-01-12T08:15:16.851Z,7.17
2019-01-12T08:17:46.393Z,13.10
2019-01-12T08:20:14.728Z,8.67
2019-01-12T08:22:43.002Z,7.30
2019-01-12T08:25:12.325Z,8.30
2019-01-12T08:27:40.668Z,9.05
2019-01-12T08:30:10.328Z,17.40
2019-01-12T08:32:38.625Z,6.30
2019-01-12T08:35:07.440Z,6.80
2019-01-12T08:37:35.668Z,9.03
2019-01-12T08:40:06.782Z,7.90
2019-01-12T08:42:38.654Z,9.67
2019-01-12T08:45:07.781Z,6.60
2019-01-12T08:47:36.378Z,9.80
2019-01-12T08:50:05.845Z,9.77
2019-01-12T08:52:34.070Z,10.87
2019-01-12T08:55:04.457Z,9.20
2019-01-12T08:57:32.661Z,9.60
2019-01-12T09:00:00.950Z,6.27
2019-01-12T09:02:29.069Z,11.23
2019-01-12T09:04:57.377Z,8.47
2019-01-12T09:07:25.517Z,6.47
2019-01-12T09:09:53.712Z,7.33
2019-01-12T09:12:21.955Z,6.00
2019-01-12T09:14:50.145Z,7.30
2019-01-12T09:17:18.352Z,7.97
2019-01-12T09:19:46.695Z,12.13
2019-01-12T09:22:14.817Z,10.93
2019-01-12T09:24:43.124Z,8.47
2019-01-12T09:27:11.297Z,8.40
2019-01-12T09:29:39.686Z,9.83
2019-01-12T09:32:07.839Z,9.03
2019-01-12T09:34:36.099Z,5.77
2019-01-12T09:37:04.339Z,7.10
2019-01-12T09:39:32.661Z,3.53
2019-01-12T09:42:00.822Z,4.23
2019-01-12T09:44:29.101Z,10.00
2019-01-12T09:46:57.309Z,6.13
2019-01-12T09:49:25.756Z,3.77
2019-01-12T09:51:54.124Z,8.13
2019-01-12T09:54:22.531Z,11.27
2019-01-12T09:56:51.919Z,5.30
2019-01-12T09:59:20.341Z,5.67
2019-01-12T10:01:48.656Z,4.97
2019-01-12T10:04:17.011Z,9.30
2019-01-12T10:06:45.728Z,9.50
2019-01-12T10:09:14.081Z,9.07
2019-01-12T10:11:42.432Z,6.70
2019-01-12T10:14:10.813Z,6.97
2019-01-12T10:16:39.131Z,5.25
2019-01-12T10:19:07.461Z,12.43
2019-01-12T10:21:35.842Z,7.07
2019-01-12T10:24:04.241Z,7.90
2019-01-12T10:26:32.432Z,8.83
2019-01-12T10:29:00.673Z,8.20
2019-01-12T10:31:28.796Z,10.37
2019-01-12T10:33:57.124Z,6.77
2019-01-12T10:36:25.400Z,7.30
2019-01-12T10:38:53.706Z,11.80
2019-01-12T10:41:22.516Z,8.70
2019-01-12T10:43:50.777Z,14.53
2019-01-12T10:46:19.093Z,139.90
2019-01-12T10:48:47.474Z,13.03
2019-01-12T10:51:15.600Z,13.73
2019-01-12T10:53:43.917Z,8.37
2019-01-12T10:56:12.130Z,10.07
2019-01-12T10:58:40.447Z,6.97
2019-01-12T11:01:08.808Z,5.93
2019-01-12T11:03:37.157Z,5.47
2019-01-12T11:06:05.566Z,7.87
2019-01-12T11:08:33.773Z,8.07
2019-01-12T11:11:03.561Z,5.92
2019-01-12T11:13:34.295Z,6.53
2019-01-12T11:16:03.085Z,6.00
2019-01-12T11:18:31.297Z,7.27
2019-01-12T11:20:59.526Z,8.60
2019-01-12T11:23:28.028Z,5.70
2019-01-12T11:25:56.410Z,7.70
2019-01-12T11:28:24.916Z,7.70
2019-01-12T11:30:53.385Z,8.00
2019-01-12T11:33:21.748Z,7.13
2019-01-12T11:35:50.090Z,5.33
2019-01-12T11:38:18.615Z,4.80
2019-01-12T11:40:47.221Z,6.43
2019-01-12T11:43:15.566Z,9.17
2019-01-12T11:45:43.785Z,6.97
2019-01-12T11:48:12.301Z,7.47
2019-01-12T11:50:40.609Z,3.67
2019-01-12T11:53:09.037Z,12.47
2019-01-12T11:55:37.389Z,6.10
2019-01-12T11:58:05.928Z,11.03
2019-01-12T12:00:34.120Z,5.67
2019-01-12T12:03:02.528Z,6.60
2019-01-12T12:05:30.954Z,5.63
2019-01-12T12:07:59.213Z,6.73
2019-01-12T12:10:27.939Z,10.30
2019-01-12T12:12:56.266Z,9.20
2019-01-12T12:15:25.610Z,9.43
2019-01-12T12:17:54.926Z,12.87
2019-01-12T12:20:24.263Z,8.50
2019-01-12T12:22:52.972Z,5.23
2019-01-12T12:25:21.848Z,6.57
2019-01-12T12:27:50.641Z,4.83
2019-01-12T12:30:21.771Z,8.50
2019-01-12T12:32:50.380Z,9.07
2019-01-12T12:35:18.688Z,7.30
2019-01-12T12:37:47.066Z,34.23
2019-01-12T12:40:15.916Z,11.30
2019-01-12T12:42:44.246Z,15.90
2019-01-12T12:45:14.896Z,15.67
2019-01-12T12:47:44.152Z,9.73
2019-01-12T12:50:13.440Z,9.57
2019-01-12T12:52:42.314Z,7.03
2019-01-12T12:55:11.850Z,8.53
2019-01-12T12:57:40.227Z,6.70
2019-01-12T13:00:12.737Z,10.60
2019-01-12T13:02:41.367Z,22.70
2019-01-12T13:05:11.765Z,12.40
2019-01-12T13:07:40.305Z,8.90
2019-01-12T13:10:15.025Z,7.60
2019-01-12T13:12:46.826Z,6.13
2019-01-12T13:15:15.889Z,5.97
2019-01-12T13:17:44.502Z,6.37
2019-01-12T13:20:14.974Z,6.07
2019-01-12T13:22:43.679Z,16.20
2019-01-12T13:25:12.401Z,14.63
2019-01-12T13:27:41.045Z,33.43
2019-01-12T13:30:13.571Z,18.40
2019-01-12T13:32:42.274Z,19.20
2019-01-12T13:35:13.008Z,12.57
2019-01-12T13:37:44.215Z,7.53
2019-01-12T13:40:15.869Z,7.03
2019-01-12T13:42:46.138Z,7.47
2019-01-12T13:45:17.037Z,8.00
2019-01-12T13:47:47.617Z,8.83
2019-01-12T13:50:18.628Z,13.67
2019-01-12T13:52:47.393Z,8.83
2019-01-12T13:55:16.915Z,8.77
2019-01-12T13:57:47.755Z,6.23
2019-01-12T14:00:35.822Z,7.30
2019-01-12T14:03:05.902Z,12.87
2019-01-12T14:05:35.577Z,9.13
2019-01-12T14:08:06.622Z,8.03
2019-01-12T14:10:35.502Z,10.23
2019-01-12T14:13:05.138Z,9.33
2019-01-12T14:15:33.704Z,9.47
2019-01-12T14:18:02.305Z,10.30
2019-01-12T14:20:34.082Z,13.70
2019-01-12T14:23:02.660Z,9.77
2019-01-12T14:25:31.103Z,13.47
2019-01-12T14:27:59.481Z,7.57
2019-01-12T14:30:28.669Z,10.10
2019-01-12T14:32:57.389Z,9.83
2019-01-12T14:35:25.915Z,9.30
2019-01-12T14:37:54.363Z,15.77
2019-01-12T14:40:22.843Z,21.43
2019-01-12T14:42:51.259Z,21.10
2019-01-12T14:45:25.827Z,55.03
2019-01-12T14:47:54.349Z,22.53
2019-01-12T14:50:22.937Z,22.20
2019-01-12T14:52:51.478Z,12.23
2019-01-12T14:55:20.467Z,15.87
2019-01-12T14:57:49.147Z,9.83
2019-01-12T15:00:19.761Z,14.03
2019-01-12T15:02:48.265Z,12.80
2019-01-12T15:05:18.666Z,9.83
2019-01-12T15:07:47.398Z,9.13
2019-01-12T15:10:17.177Z,10.10
2019-01-12T15:12:46.269Z,8.23
2019-01-12T15:15:15.429Z,9.23
2019-01-12T15:17:44.077Z,9.57
2019-01-12T15:20:15.368Z,9.77
2019-01-12T15:22:43.898Z,36.60
2019-01-12T15:25:12.821Z,25.20
2019-01-12T15:27:41.442Z,32.33
2019-01-12T15:30:16.587Z,38.23
2019-01-12T15:32:45.170Z,25.37
2019-01-12T15:35:15.421Z,27.48
2019-01-12T15:37:43.978Z,18.97
2019-01-12T15:40:13.934Z,21.90
2019-01-12T15:42:42.705Z,25.67
2019-01-12T15:45:14.318Z,19.93
2019-01-12T15:47:43.150Z,37.20
2019-01-12T15:50:14.466Z,19.20
2019-01-12T15:52:42.905Z,18.53
2019-01-12T15:55:11.449Z,20.63
2019-01-12T15:57:40.159Z,32.53
2019-01-12T16:00:12.209Z,32.97
2019-01-12T16:02:41.138Z,36.87
2019-01-12T16:05:10.327Z,43.67
2019-01-12T16:07:38.911Z,43.07
2019-01-12T16:10:08.250Z,45.07
2019-01-12T16:12:36.760Z,49.10
2019-01-12T16:15:08.766Z,66.97
2019-01-12T16:17:38.101Z,43.83
2019-01-12T16:20:11.158Z,28.33
2019-01-12T16:22:39.597Z,34.23
2019-01-12T16:25:08.421Z,29.60
2019-01-12T16:27:37.107Z,35.90
2019-01-12T16:30:07.877Z,27.23
2019-01-12T16:32:36.325Z,27.43
2019-01-12T16:35:05.221Z,26.33
2019-01-12T16:37:35.998Z,32.30
2019-01-12T16:40:05.217Z,36.87
2019-01-12T16:42:35.300Z,45.05
2019-01-12T16:45:04.931Z,61.63
2019-01-12T16:47:33.413Z,61.63
2019-01-12T16:50:02.023Z,59.03
2019-01-12T16:52:30.554Z,58.00
2019-01-12T16:54:59.071Z,52.03
2019-01-12T16:57:28.563Z,50.10
2019-01-12T16:59:59.711Z,71.50
2019-01-12T17:02:28.853Z,63.93
2019-01-12T17:04:57.286Z,57.03
2019-01-12T17:07:25.704Z,53.43
2019-01-12T17:09:54.194Z,51.03
2019-01-12T17:12:22.645Z,57.37
2019-01-12T17:14:51.308Z,78.27
2019-01-12T17:17:19.926Z,78.77
2019-01-12T17:19:48.414Z,77.03
2019-01-12T17:22:16.882Z,74.10
2019-01-12T17:24:45.473Z,71.97
2019-01-12T17:27:13.919Z,67.03
2019-01-12T17:29:42.549Z,62.63
2019-01-12T17:32:11.086Z,59.70
2019-01-12T17:34:39.911Z,56.47
2019-01-12T17:37:08.558Z,54.93
2019-01-12T17:39:37.246Z,51.23
2019-01-12T17:42:05.777Z,55.83
2019-01-12T17:44:34.324Z,50.90
2019-01-12T17:47:02.725Z,47.40
2019-01-12T17:49:31.237Z,52.40
2019-01-12T17:51:59.655Z,56.77
2019-01-12T17:54:28.072Z,53.17
2019-01-12T17:56:56.622Z,58.33
2019-01-12T17:59:25.163Z,62.03
2019-01-12T18:01:53.651Z,58.37
2019-01-12T18:04:21.977Z,60.53
2019-01-12T18:06:50.470Z,56.00
2019-01-12T18:09:19.368Z,51.37
2019-01-12T18:11:47.986Z,52.07
2019-01-12T18:14:16.469Z,49.43
2019-01-12T18:16:44.930Z,47.90
2019-01-12T18:19:13.501Z,47.63
2019-01-12T18:21:42.006Z,44.07
2019-01-12T18:24:10.489Z,42.95
2019-01-12T18:26:38.898Z,37.93
2019-01-12T18:29:08.717Z,40.07
2019-01-12T18:31:37.310Z,42.80
2019-01-12T18:34:06.111Z,38.57
2019-01-12T18:36:34.898Z,40.70
2019-01-12T18:39:05.340Z,45.30
2019-01-12T18:41:35.200Z,41.80
2019-01-12T18:44:05.296Z,35.83
2019-01-12T18:46:33.818Z,27.93
2019-01-12T18:49:02.490Z,27.77
2019-01-12T18:51:31.109Z,24.43
2019-01-12T18:54:02.586Z,23.13
2019-01-12T18:56:31.869Z,27.40
2019-01-12T18:59:02.421Z,27.37
2019-01-12T19:01:32.429Z,31.90
2019-01-12T19:04:02.227Z,33.33
2019-01-12T19:06:43.643Z,38.87
2019-01-12T19:09:12.181Z,38.07
2019-01-12T19:11:40.746Z,38.17
2019-01-12T19:14:09.301Z,35.00
2019-01-12T19:16:37.880Z,40.07
2019-01-12T19:19:06.269Z,40.77
2019-01-12T19:21:35.617Z,40.30
2019-01-12T19:24:04.397Z,40.38
2019-01-12T19:26:32.761Z,42.40
2019-01-12T19:29:06.322Z,42.40
2019-01-12T19:31:31.862Z,39.87
2019-01-12T19:34:00.200Z,44.47
2019-01-12T19:36:28.778Z,46.80
2019-01-12T19:38:57.585Z,48.30
2019-01-12T19:41:26.085Z,47.13
2019-01-12T19:43:54.480Z,55.00
2019-01-12T19:46:23.104Z,57.27
2019-01-12T19:48:51.759Z,51.07
2019-01-12T19:51:20.389Z,42.07
2019-01-12T19:53:48.853Z,33.10
2019-01-12T19:56:17.686Z,30.40
2019-01-12T19:58:46.466Z,26.17
2019-01-12T20:01:15.033Z,29.50
2019-01-12T20:03:43.734Z,33.00
2019-01-12T20:06:17.221Z,31.23
2019-01-12T20:08:43.845Z,32.97
2019-01-12T20:11:13.046Z,33.53
2019-01-12T20:13:42.336Z,25.03
2019-01-12T20:16:11.014Z,34.23
2019-01-12T20:18:39.801Z,32.00
2019-01-12T20:21:08.325Z,35.60
2019-01-12T20:23:37.792Z,33.87
2019-01-12T20:26:06.398Z,35.13
2019-01-12T20:28:34.977Z,37.13
2019-01-12T20:31:51.065Z,45.17
2019-01-12T20:34:30.662Z,37.67
2019-01-12T20:37:38.933Z,43.43
2019-01-12T20:40:16.637Z,40.87
2019-01-12T20:43:09.422Z,46.80
2019-01-12T20:46:13.121Z,41.53
2019-01-12T20:48:52.765Z,34.17
2019-01-12T20:52:03.501Z,37.83
2019-01-12T20:55:23.208Z,30.97
2019-01-12T20:58:24.993Z,29.40
2019-01-12T21:01:12.186Z,45.33
2019-01-12T21:04:10.438Z,57.90
2019-01-12T21:07:22.806Z,54.47
2019-01-12T21:10:17.870Z,39.53
2019-01-12T21:13:36.883Z,53.20
2019-01-12T21:16:14.503Z,43.43
2019-01-12T21:18:44.761Z,41.97
2019-01-12T21:21:17.459Z,48.00
2019-01-12T21:23:46.023Z,40.30
2019-01-12T21:26:28.132Z,38.67
2019-01-12T21:28:56.959Z,33.17
2019-01-12T21:31:25.441Z,31.90
2019-01-12T21:33:53.978Z,31.70
2019-01-12T21:36:22.478Z,30.80
2019-01-12T21:38:50.966Z,28.63
2019-01-12T21:41:19.490Z,30.33
2019-01-12T21:43:47.908Z,29.60
2019-01-12T21:46:16.407Z,36.60
2019-01-12T21:48:44.697Z,28.93
2019-01-12T21:51:13.317Z,30.53
2019-01-12T21:53:41.727Z,25.93
2019-01-12T21:56:10.311Z,30.60
2019-01-12T21:58:38.856Z,25.60
2019-01-12T22:01:07.454Z,27.27
2019-01-12T22:03:37.203Z,27.50
2019-01-12T22:06:07.416Z,28.80
2019-01-12T22:08:37.658Z,26.77
2019-01-12T22:11:07.671Z,26.27
2019-01-12T22:13:37.993Z,25.07
2019-01-12T22:16:08.054Z,27.60
2019-01-12T22:18:39.825Z,26.80
2019-01-12T22:21:09.886Z,18.63
2019-01-12T22:23:40.022Z,23.20
2019-01-12T22:26:14.094Z,20.93
2019-01-12T22:28:44.139Z,21.17
2019-01-12T22:31:14.289Z,25.13
2019-01-12T22:33:44.275Z,20.87
2019-01-12T22:36:16.205Z,18.33
2019-01-12T22:38:46.138Z,20.45
2019-01-12T22:41:16.040Z,15.47
2019-01-12T22:43:45.997Z,17.10
2019-01-12T22:46:16.309Z,17.83
2019-01-12T22:48:46.356Z,14.73
2019-01-12T22:51:17.179Z,14.77
2019-01-12T22:53:48.821Z,17.80
2019-01-12T22:56:18.903Z,16.17
2019-01-12T22:58:48.946Z,18.48
2019-01-12T23:01:52.531Z,17.63
2019-01-12T23:04:25.098Z,18.37
2019-01-12T23:06:55.124Z,18.00
2019-01-12T23:09:25.174Z,20.07
2019-01-12T23:11:55.196Z,16.37
2019-01-12T23:14:25.344Z,19.87
2019-01-12T23:16:55.439Z,17.10
2019-01-12T23:19:24.367Z,17.53
2019-01-12T23:21:53.368Z,18.90
2019-01-12T23:24:21.973Z,18.17
2019-01-12T23:26:51.026Z,18.13
2019-01-12T23:29:20.858Z,13.63
2019-01-12T23:31:49.468Z,18.93
2019-01-12T23:34:17.840Z,17.93
2019-01-12T23:36:46.532Z,14.17
2019-01-12T23:39:15.373Z,15.53
2019-01-12T23:41:43.852Z,17.97
2019-01-12T23:44:15.068Z,15.47
2019-01-12T23:46:42.674Z,16.83
2019-01-12T23:49:10.989Z,16.70
2019-01-12T23:51:39.565Z,17.10
2019-01-12T23:54:07.872Z,16.80
2019-01-12T23:56:36.324Z,12.97
2019-01-12T23:59:05.865Z,12.67
